sensor_id;sensor_type;location;lat;lon;timestamp;pressure;altitude;pressure_sealevel;temperature;humidity
73624;BME280;61921;53.226;-1.296;2022-08-25T00:02:11;100757.95;;;19.61;85.69
73624;BME280;61921;53.226;-1.296;2022-08-25T00:04:37;100760.20;;;19.44;86.63
73624;BME280;61921;53.226;-1.296;2022-08-25T00:07:03;100759.53;;;19.49;86.41
73624;BME280;61921;53.226;-1.296;2022-08-25T00:09:30;100762.32;;;19.41;86.94
73624;BME280;61921;53.226;-1.296;2022-08-25T00:11:54;100767.04;;;19.70;86.10
73624;BME280;61921;53.226;-1.296;2022-08-25T00:14:22;100773.30;;;19.57;85.59
73624;BME280;61921;53.226;-1.296;2022-08-25T00:16:45;100780.30;;;19.46;86.13
73624;BME280;61921;53.226;-1.296;2022-08-25T00:19:12;100778.84;;;19.48;86.09
73624;BME280;61921;53.226;-1.296;2022-08-25T00:21:36;100775.42;;;19.52;84.38
73624;BME280;61921;53.226;-1.296;2022-08-25T00:24:01;100778.07;;;19.58;83.61
73624;BME280;61921;53.226;-1.296;2022-08-25T00:26:27;100777.08;;;19.23;83.76
73624;BME280;61921;53.226;-1.296;2022-08-25T00:28:51;100777.84;;;19.09;85.52
73624;BME280;61921;53.226;-1.296;2022-08-25T00:31:21;100776.67;;;19.12;85.37
73624;BME280;61921;53.226;-1.296;2022-08-25T00:33:43;100777.74;;;19.24;84.55
73624;BME280;61921;53.226;-1.296;2022-08-25T00:36:08;100776.11;;;19.15;84.17
73624;BME280;61921;53.226;-1.296;2022-08-25T00:38:33;100778.70;;;19.04;84.72
73624;BME280;61921;53.226;-1.296;2022-08-25T00:40:58;100780.56;;;18.93;85.46
73624;BME280;61921;53.226;-1.296;2022-08-25T00:43:24;100779.50;;;18.75;85.86
73624;BME280;61921;53.226;-1.296;2022-08-25T00:45:50;100775.34;;;18.72;86.05
73624;BME280;61921;53.226;-1.296;2022-08-25T00:48:15;100771.19;;;18.68;86.53
73624;BME280;61921;53.226;-1.296;2022-08-25T00:50:40;100772.33;;;18.86;86.05
73624;BME280;61921;53.226;-1.296;2022-08-25T00:53:07;100778.38;;;18.75;85.43
73624;BME280;61921;53.226;-1.296;2022-08-25T00:55:34;100780.56;;;18.80;85.79
73624;BME280;61921;53.226;-1.296;2022-08-25T00:58:02;100780.15;;;18.77;85.91
73624;BME280;61921;53.226;-1.296;2022-08-25T01:00:25;100779.01;;;18.75;86.29
73624;BME280;61921;53.226;-1.296;2022-08-25T01:02:46;100773.58;;;18.56;86.13
73624;BME280;61921;53.226;-1.296;2022-08-25T01:05:13;100772.23;;;18.73;86.20
73624;BME280;61921;53.226;-1.296;2022-08-25T01:07:38;100766.54;;;18.80;84.81
73624;BME280;61921;53.226;-1.296;2022-08-25T01:10:04;100757.87;;;18.88;84.94
73624;BME280;61921;53.226;-1.296;2022-08-25T01:12:28;100756.27;;;18.76;84.49
73624;BME280;61921;53.226;-1.296;2022-08-25T01:14:54;100761.07;;;18.73;84.86
73624;BME280;61921;53.226;-1.296;2022-08-25T01:17:19;100770.14;;;18.72;84.87
73624;BME280;61921;53.226;-1.296;2022-08-25T01:19:45;100772.77;;;18.75;84.48
73624;BME280;61921;53.226;-1.296;2022-08-25T01:22:11;100776.36;;;18.81;84.38
73624;BME280;61921;53.226;-1.296;2022-08-25T01:24:39;100776.18;;;18.65;84.82
73624;BME280;61921;53.226;-1.296;2022-08-25T01:27:01;100774.57;;;18.78;84.96
73624;BME280;61921;53.226;-1.296;2022-08-25T01:29:28;100765.47;;;18.63;85.41
73624;BME280;61921;53.226;-1.296;2022-08-25T01:31:55;100770.86;;;18.38;85.69
73624;BME280;61921;53.226;-1.296;2022-08-25T01:34:18;100775.34;;;18.40;86.01
73624;BME280;61921;53.226;-1.296;2022-08-25T01:36:43;100777.18;;;18.44;85.56
73624;BME280;61921;53.226;-1.296;2022-08-25T01:39:09;100778.96;;;18.22;86.06
73624;BME280;61921;53.226;-1.296;2022-08-25T01:41:40;100778.59;;;18.15;86.13
73624;BME280;61921;53.226;-1.296;2022-08-25T01:44:00;100776.70;;;17.98;87.08
73624;BME280;61921;53.226;-1.296;2022-08-25T01:46:25;100766.44;;;18.04;87.06
73624;BME280;61921;53.226;-1.296;2022-08-25T01:48:50;100760.46;;;18.02;86.82
73624;BME280;61921;53.226;-1.296;2022-08-25T01:51:19;100761.42;;;17.86;87.17
73624;BME280;61921;53.226;-1.296;2022-08-25T01:53:41;100761.31;;;18.02;86.61
73624;BME280;61921;53.226;-1.296;2022-08-25T01:56:08;100759.55;;;18.18;85.36
73624;BME280;61921;53.226;-1.296;2022-08-25T01:58:34;100761.91;;;18.13;85.46
73624;BME280;61921;53.226;-1.296;2022-08-25T02:01:00;100768.82;;;18.01;86.10
73624;BME280;61921;53.226;-1.296;2022-08-25T02:03:24;100772.00;;;18.02;85.86
73624;BME280;61921;53.226;-1.296;2022-08-25T02:05:48;100770.72;;;18.24;84.51
73624;BME280;61921;53.226;-1.296;2022-08-25T02:08:13;100772.78;;;18.44;83.51
73624;BME280;61921;53.226;-1.296;2022-08-25T02:10:39;100774.79;;;18.20;84.48
73624;BME280;61921;53.226;-1.296;2022-08-25T02:13:04;100774.48;;;18.01;85.81
73624;BME280;61921;53.226;-1.296;2022-08-25T02:15:29;100775.13;;;18.14;85.18
73624;BME280;61921;53.226;-1.296;2022-08-25T02:17:54;100781.66;;;17.97;85.02
73624;BME280;61921;53.226;-1.296;2022-08-25T02:20:19;100779.98;;;18.07;85.18
73624;BME280;61921;53.226;-1.296;2022-08-25T02:22:45;100772.33;;;18.19;83.89
73624;BME280;61921;53.226;-1.296;2022-08-25T02:25:10;100769.38;;;18.16;83.78
73624;BME280;61921;53.226;-1.296;2022-08-25T02:27:36;100768.27;;;18.09;84.38
73624;BME280;61921;53.226;-1.296;2022-08-25T02:30:02;100766.10;;;17.89;85.17
73624;BME280;61921;53.226;-1.296;2022-08-25T02:32:26;100764.08;;;18.07;84.74
73624;BME280;61921;53.226;-1.296;2022-08-25T02:34:52;100765.15;;;18.03;84.80
73624;BME280;61921;53.226;-1.296;2022-08-25T02:37:18;100767.13;;;18.12;83.95
73624;BME280;61921;53.226;-1.296;2022-08-25T02:39:43;100772.11;;;18.14;84.10
73624;BME280;61921;53.226;-1.296;2022-08-25T02:42:08;100777.32;;;18.11;84.16
73624;BME280;61921;53.226;-1.296;2022-08-25T02:44:34;100779.99;;;18.03;85.06
73624;BME280;61921;53.226;-1.296;2022-08-25T02:47:00;100780.19;;;17.72;86.64
73624;BME280;61921;53.226;-1.296;2022-08-25T02:49:26;100771.06;;;17.54;87.57
73624;BME280;61921;53.226;-1.296;2022-08-25T02:51:51;100764.88;;;17.61;87.81
73624;BME280;61921;53.226;-1.296;2022-08-25T02:54:18;100761.55;;;17.75;87.03
73624;BME280;61921;53.226;-1.296;2022-08-25T02:56:42;100762.09;;;17.58;87.47
73624;BME280;61921;53.226;-1.296;2022-08-25T02:59:08;100761.89;;;17.57;87.87
73624;BME280;61921;53.226;-1.296;2022-08-25T03:01:34;100761.29;;;17.40;88.41
73624;BME280;61921;53.226;-1.296;2022-08-25T03:03:59;100763.59;;;17.37;88.82
73624;BME280;61921;53.226;-1.296;2022-08-25T03:06:24;100764.17;;;17.38;88.76
73624;BME280;61921;53.226;-1.296;2022-08-25T03:08:50;100762.79;;;17.41;88.95
73624;BME280;61921;53.226;-1.296;2022-08-25T03:11:15;100759.39;;;17.41;88.90
73624;BME280;61921;53.226;-1.296;2022-08-25T03:13:41;100754.45;;;17.52;88.28
73624;BME280;61921;53.226;-1.296;2022-08-25T03:16:07;100748.15;;;17.70;87.71
73624;BME280;61921;53.226;-1.296;2022-08-25T03:18:32;100742.67;;;17.55;87.92
73624;BME280;61921;53.226;-1.296;2022-08-25T03:20:57;100740.28;;;17.59;87.22
73624;BME280;61921;53.226;-1.296;2022-08-25T03:23:23;100741.95;;;17.60;87.05
73624;BME280;61921;53.226;-1.296;2022-08-25T03:25:48;100741.51;;;17.60;87.18
73624;BME280;61921;53.226;-1.296;2022-08-25T03:28:14;100744.19;;;17.57;86.77
73624;BME280;61921;53.226;-1.296;2022-08-25T03:30:38;100740.28;;;17.72;85.62
73624;BME280;61921;53.226;-1.296;2022-08-25T03:33:03;100740.35;;;17.74;85.68
73624;BME280;61921;53.226;-1.296;2022-08-25T03:35:29;100737.96;;;17.77;85.23
73624;BME280;61921;53.226;-1.296;2022-08-25T03:37:55;100744.08;;;17.57;85.47
73624;BME280;61921;53.226;-1.296;2022-08-25T03:40:20;100744.60;;;17.48;85.93
73624;BME280;61921;53.226;-1.296;2022-08-25T03:42:45;100742.28;;;17.41;85.94
73624;BME280;61921;53.226;-1.296;2022-08-25T03:45:11;100739.25;;;17.35;86.37
73624;BME280;61921;53.226;-1.296;2022-08-25T03:47:36;100737.58;;;17.36;86.49
73624;BME280;61921;53.226;-1.296;2022-08-25T03:50:01;100740.23;;;17.23;86.90
73624;BME280;61921;53.226;-1.296;2022-08-25T03:52:26;100737.67;;;17.26;86.70
73624;BME280;61921;53.226;-1.296;2022-08-25T03:54:51;100740.39;;;17.38;86.46
73624;BME280;61921;53.226;-1.296;2022-08-25T03:57:18;100737.48;;;17.49;86.04
73624;BME280;61921;53.226;-1.296;2022-08-25T03:59:42;100738.72;;;17.34;85.26
73624;BME280;61921;53.226;-1.296;2022-08-25T04:02:08;100737.73;;;17.29;85.88
73624;BME280;61921;53.226;-1.296;2022-08-25T04:04:33;100734.04;;;17.15;85.87
73624;BME280;61921;53.226;-1.296;2022-08-25T04:06:59;100727.01;;;17.16;86.29
73624;BME280;61921;53.226;-1.296;2022-08-25T04:09:24;100725.65;;;17.05;86.45
73624;BME280;61921;53.226;-1.296;2022-08-25T04:11:50;100722.03;;;17.11;86.46
73624;BME280;61921;53.226;-1.296;2022-08-25T04:14:14;100711.40;;;17.31;85.86
73624;BME280;61921;53.226;-1.296;2022-08-25T04:16:40;100710.40;;;17.35;85.05
73624;BME280;61921;53.226;-1.296;2022-08-25T04:19:06;100707.67;;;17.11;86.17
73624;BME280;61921;53.226;-1.296;2022-08-25T04:21:31;100706.90;;;17.15;85.85
73624;BME280;61921;53.226;-1.296;2022-08-25T04:23:57;100706.27;;;17.09;86.25
73624;BME280;61921;53.226;-1.296;2022-08-25T04:26:25;100708.71;;;17.14;86.19
73624;BME280;61921;53.226;-1.296;2022-08-25T04:28:48;100702.47;;;17.08;86.21
73624;BME280;61921;53.226;-1.296;2022-08-25T04:31:15;100704.53;;;17.03;86.29
73624;BME280;61921;53.226;-1.296;2022-08-25T04:33:41;100701.60;;;17.11;86.11
73624;BME280;61921;53.226;-1.296;2022-08-25T04:36:07;100705.97;;;17.30;85.17
73624;BME280;61921;53.226;-1.296;2022-08-25T04:38:31;100704.01;;;17.28;85.17
73624;BME280;61921;53.226;-1.296;2022-08-25T04:40:57;100699.28;;;17.36;84.12
73624;BME280;61921;53.226;-1.296;2022-08-25T04:43:22;100693.76;;;17.22;84.22
73624;BME280;61921;53.226;-1.296;2022-08-25T04:45:47;100704.58;;;17.04;84.50
73624;BME280;61921;53.226;-1.296;2022-08-25T04:48:12;100716.37;;;16.97;84.91
73624;BME280;61921;53.226;-1.296;2022-08-25T04:50:38;100722.03;;;17.04;84.71
73624;BME280;61921;53.226;-1.296;2022-08-25T04:53:03;100720.01;;;16.94;84.97
73624;BME280;61921;53.226;-1.296;2022-08-25T04:55:28;100724.34;;;16.96;84.87
73624;BME280;61921;53.226;-1.296;2022-08-25T04:57:54;100732.99;;;16.94;85.10
73624;BME280;61921;53.226;-1.296;2022-08-25T05:00:19;100741.13;;;16.89;84.55
73624;BME280;61921;53.226;-1.296;2022-08-25T05:02:45;100749.14;;;16.96;84.79
73624;BME280;61921;53.226;-1.296;2022-08-25T05:05:10;100747.19;;;16.97;84.75
73624;BME280;61921;53.226;-1.296;2022-08-25T05:07:36;100750.16;;;17.02;85.05
73624;BME280;61921;53.226;-1.296;2022-08-25T05:10:01;100744.58;;;16.99;84.62
73624;BME280;61921;53.226;-1.296;2022-08-25T05:12:26;100734.37;;;16.89;84.82
73624;BME280;61921;53.226;-1.296;2022-08-25T05:14:52;100730.47;;;16.85;84.97
73624;BME280;61921;53.226;-1.296;2022-08-25T05:17:17;100733.42;;;16.82;84.55
73624;BME280;61921;53.226;-1.296;2022-08-25T05:19:42;100732.19;;;16.85;84.18
73624;BME280;61921;53.226;-1.296;2022-08-25T05:22:07;100739.35;;;16.90;84.33
73624;BME280;61921;53.226;-1.296;2022-08-25T05:24:33;100745.04;;;16.99;84.04
73624;BME280;61921;53.226;-1.296;2022-08-25T05:26:59;100748.70;;;17.12;83.01
73624;BME280;61921;53.226;-1.296;2022-08-25T05:29:24;100754.91;;;16.99;83.42
73624;BME280;61921;53.226;-1.296;2022-08-25T05:31:49;100762.43;;;16.89;83.98
73624;BME280;61921;53.226;-1.296;2022-08-25T05:34:14;100761.80;;;16.96;83.56
73624;BME280;61921;53.226;-1.296;2022-08-25T05:36:40;100753.33;;;17.25;82.30
73624;BME280;61921;53.226;-1.296;2022-08-25T05:39:06;100749.54;;;17.39;81.49
73624;BME280;61921;53.226;-1.296;2022-08-25T05:41:31;100754.12;;;17.31;81.30
73624;BME280;61921;53.226;-1.296;2022-08-25T05:43:57;100759.92;;;17.48;81.28
73624;BME280;61921;53.226;-1.296;2022-08-25T05:46:23;100758.81;;;17.62;80.27
73624;BME280;61921;53.226;-1.296;2022-08-25T05:48:48;100759.36;;;17.73;80.21
73624;BME280;61921;53.226;-1.296;2022-08-25T05:51:14;100770.15;;;17.68;80.34
73624;BME280;61921;53.226;-1.296;2022-08-25T05:53:41;100777.85;;;17.70;79.55
73624;BME280;61921;53.226;-1.296;2022-08-25T05:56:05;100781.26;;;17.74;79.39
73624;BME280;61921;53.226;-1.296;2022-08-25T05:58:30;100781.83;;;17.63;79.86
73624;BME280;61921;53.226;-1.296;2022-08-25T06:00:57;100784.82;;;17.83;79.33
73624;BME280;61921;53.226;-1.296;2022-08-25T06:03:21;100782.01;;;17.69;79.04
73624;BME280;61921;53.226;-1.296;2022-08-25T06:05:46;100775.55;;;17.63;79.73
73624;BME280;61921;53.226;-1.296;2022-08-25T06:08:11;100773.88;;;17.61;79.05
73624;BME280;61921;53.226;-1.296;2022-08-25T06:10:37;100772.41;;;17.31;80.72
73624;BME280;61921;53.226;-1.296;2022-08-25T06:13:02;100771.95;;;17.28;80.71
73624;BME280;61921;53.226;-1.296;2022-08-25T06:15:27;100768.83;;;17.45;80.23
73624;BME280;61921;53.226;-1.296;2022-08-25T06:17:52;100761.89;;;17.28;79.92
73624;BME280;61921;53.226;-1.296;2022-08-25T06:20:19;100760.61;;;17.30;80.33
73624;BME280;61921;53.226;-1.296;2022-08-25T06:22:42;100761.68;;;17.38;80.08
73624;BME280;61921;53.226;-1.296;2022-08-25T06:25:09;100760.60;;;17.38;80.05
73624;BME280;61921;53.226;-1.296;2022-08-25T06:27:34;100760.84;;;17.15;80.45
73624;BME280;61921;53.226;-1.296;2022-08-25T06:29:58;100762.79;;;17.13;80.98
73624;BME280;61921;53.226;-1.296;2022-08-25T06:32:23;100764.30;;;17.07;80.56
73624;BME280;61921;53.226;-1.296;2022-08-25T06:34:48;100769.11;;;17.23;80.77
73624;BME280;61921;53.226;-1.296;2022-08-25T06:37:14;100774.36;;;17.23;80.57
73624;BME280;61921;53.226;-1.296;2022-08-25T06:39:39;100775.59;;;17.10;81.30
73624;BME280;61921;53.226;-1.296;2022-08-25T06:42:04;100776.79;;;17.06;81.69
73624;BME280;61921;53.226;-1.296;2022-08-25T06:44:29;100776.27;;;16.91;82.30
73624;BME280;61921;53.226;-1.296;2022-08-25T06:46:55;100773.06;;;16.76;82.88
73624;BME280;61921;53.226;-1.296;2022-08-25T06:49:20;100770.54;;;16.95;83.03
73624;BME280;61921;53.226;-1.296;2022-08-25T06:51:45;100769.80;;;17.06;82.56
73624;BME280;61921;53.226;-1.296;2022-08-25T06:54:11;100771.18;;;17.20;81.37
73624;BME280;61921;53.226;-1.296;2022-08-25T06:56:36;100774.00;;;17.17;81.71
73624;BME280;61921;53.226;-1.296;2022-08-25T06:59:01;100773.96;;;17.42;81.32
73624;BME280;61921;53.226;-1.296;2022-08-25T07:01:26;100774.66;;;17.58;79.99
73624;BME280;61921;53.226;-1.296;2022-08-25T07:03:55;100776.97;;;17.48;81.05
73624;BME280;61921;53.226;-1.296;2022-08-25T07:06:17;100773.55;;;17.62;80.58
73624;BME280;61921;53.226;-1.296;2022-08-25T07:08:43;100774.99;;;17.40;80.57
73624;BME280;61921;53.226;-1.296;2022-08-25T07:11:09;100777.54;;;17.37;80.81
73624;BME280;61921;53.226;-1.296;2022-08-25T07:13:34;100779.44;;;17.41;81.56
73624;BME280;61921;53.226;-1.296;2022-08-25T07:15:59;100781.36;;;17.31;81.54
73624;BME280;61921;53.226;-1.296;2022-08-25T07:18:24;100781.87;;;17.28;81.53
73624;BME280;61921;53.226;-1.296;2022-08-25T07:20:49;100774.51;;;17.18;81.88
73624;BME280;61921;53.226;-1.296;2022-08-25T07:23:14;100774.84;;;17.42;81.95
73624;BME280;61921;53.226;-1.296;2022-08-25T07:25:40;100776.68;;;17.35;81.59
73624;BME280;61921;53.226;-1.296;2022-08-25T07:28:05;100782.11;;;17.21;81.27
73624;BME280;61921;53.226;-1.296;2022-08-25T07:30:31;100788.08;;;17.14;81.92
73624;BME280;61921;53.226;-1.296;2022-08-25T07:32:56;100789.20;;;17.24;81.54
73624;BME280;61921;53.226;-1.296;2022-08-25T07:35:21;100792.04;;;17.32;80.83
73624;BME280;61921;53.226;-1.296;2022-08-25T07:37:49;100789.48;;;17.16;81.24
73624;BME280;61921;53.226;-1.296;2022-08-25T07:40:14;100793.33;;;17.01;81.73
73624;BME280;61921;53.226;-1.296;2022-08-25T07:42:37;100790.94;;;17.07;81.43
73624;BME280;61921;53.226;-1.296;2022-08-25T07:45:03;100790.44;;;17.03;80.88
73624;BME280;61921;53.226;-1.296;2022-08-25T07:47:27;100792.58;;;16.92;80.88
73624;BME280;61921;53.226;-1.296;2022-08-25T07:49:53;100799.13;;;17.07;80.33
73624;BME280;61921;53.226;-1.296;2022-08-25T07:52:19;100803.72;;;17.27;79.99
73624;BME280;61921;53.226;-1.296;2022-08-25T07:54:43;100806.55;;;17.25;79.54
73624;BME280;61921;53.226;-1.296;2022-08-25T07:57:08;100809.34;;;17.53;78.44
73624;BME280;61921;53.226;-1.296;2022-08-25T07:59:34;100814.12;;;17.49;78.81
73624;BME280;61921;53.226;-1.296;2022-08-25T08:01:59;100821.54;;;17.68;77.85
73624;BME280;61921;53.226;-1.296;2022-08-25T08:04:24;100821.28;;;17.59;77.73
73624;BME280;61921;53.226;-1.296;2022-08-25T08:06:49;100819.81;;;17.68;78.26
73624;BME280;61921;53.226;-1.296;2022-08-25T08:09:14;100821.95;;;17.51;79.49
73624;BME280;61921;53.226;-1.296;2022-08-25T08:11:39;100822.57;;;17.49;81.19
73624;BME280;61921;53.226;-1.296;2022-08-25T08:14:05;100821.75;;;17.35;81.68
73624;BME280;61921;53.226;-1.296;2022-08-25T08:16:30;100818.07;;;17.35;82.79
73624;BME280;61921;53.226;-1.296;2022-08-25T08:18:56;100815.84;;;17.13;81.24
73624;BME280;61921;53.226;-1.296;2022-08-25T08:21:23;100816.29;;;17.08;82.08
73624;BME280;61921;53.226;-1.296;2022-08-25T08:23:47;100819.56;;;17.10;82.84
73624;BME280;61921;53.226;-1.296;2022-08-25T08:26:11;100817.45;;;16.96;82.57
73624;BME280;61921;53.226;-1.296;2022-08-25T08:28:37;100818.67;;;16.98;83.16
73624;BME280;61921;53.226;-1.296;2022-08-25T08:31:02;100821.51;;;17.04;83.28
73624;BME280;61921;53.226;-1.296;2022-08-25T08:33:27;100823.25;;;17.08;83.08
73624;BME280;61921;53.226;-1.296;2022-08-25T08:35:57;100823.96;;;17.04;83.71
73624;BME280;61921;53.226;-1.296;2022-08-25T08:38:18;100824.32;;;16.91;84.58
73624;BME280;61921;53.226;-1.296;2022-08-25T08:40:48;100825.21;;;16.85;84.94
73624;BME280;61921;53.226;-1.296;2022-08-25T08:43:11;100826.23;;;16.79;85.17
73624;BME280;61921;53.226;-1.296;2022-08-25T08:45:35;100828.18;;;16.65;86.09
73624;BME280;61921;53.226;-1.296;2022-08-25T08:48:14;100833.30;;;16.82;85.93
73624;BME280;61921;53.226;-1.296;2022-08-25T08:50:29;100831.52;;;16.93;86.35
73624;BME280;61921;53.226;-1.296;2022-08-25T08:52:54;100828.77;;;16.72;86.08
73624;BME280;61921;53.226;-1.296;2022-08-25T08:55:21;100827.08;;;16.55;87.66
73624;BME280;61921;53.226;-1.296;2022-08-25T08:57:44;100830.27;;;16.56;86.86
73624;BME280;61921;53.226;-1.296;2022-08-25T09:00:06;100834.03;;;16.70;86.53
73624;BME280;61921;53.226;-1.296;2022-08-25T09:02:33;100832.90;;;16.67;85.33
73624;BME280;61921;53.226;-1.296;2022-08-25T09:04:59;100837.90;;;16.57;87.28
73624;BME280;61921;53.226;-1.296;2022-08-25T09:07:24;100841.74;;;16.68;86.23
73624;BME280;61921;53.226;-1.296;2022-08-25T09:09:46;100846.86;;;16.62;84.91
73624;BME280;61921;53.226;-1.296;2022-08-25T09:12:14;100846.32;;;16.73;86.51
73624;BME280;61921;53.226;-1.296;2022-08-25T09:14:46;100842.76;;;16.60;86.75
73624;BME280;61921;53.226;-1.296;2022-08-25T09:17:04;100843.88;;;16.65;86.74
73624;BME280;61921;53.226;-1.296;2022-08-25T09:19:40;100849.13;;;16.73;86.50
73624;BME280;61921;53.226;-1.296;2022-08-25T09:21:56;100846.04;;;16.84;86.26
73624;BME280;61921;53.226;-1.296;2022-08-25T09:24:28;100843.15;;;16.71;86.62
73624;BME280;61921;53.226;-1.296;2022-08-25T09:26:47;100844.43;;;16.63;85.85
73624;BME280;61921;53.226;-1.296;2022-08-25T09:29:09;100841.03;;;16.67;86.33
73624;BME280;61921;53.226;-1.296;2022-08-25T09:31:34;100839.75;;;16.54;87.04
73624;BME280;61921;53.226;-1.296;2022-08-25T09:34:01;100841.20;;;16.65;86.58
73624;BME280;61921;53.226;-1.296;2022-08-25T09:36:24;100839.93;;;16.58;86.29
73624;BME280;61921;53.226;-1.296;2022-08-25T09:38:48;100841.15;;;16.64;86.86
73624;BME280;61921;53.226;-1.296;2022-08-25T09:41:16;100844.47;;;16.74;86.34
73624;BME280;61921;53.226;-1.296;2022-08-25T09:43:41;100839.90;;;16.75;86.05
73624;BME280;61921;53.226;-1.296;2022-08-25T09:46:10;100833.42;;;16.63;86.28
73624;BME280;61921;53.226;-1.296;2022-08-25T09:48:31;100830.61;;;16.79;86.55
73624;BME280;61921;53.226;-1.296;2022-08-25T09:50:58;100824.78;;;16.86;86.39
73624;BME280;61921;53.226;-1.296;2022-08-25T09:53:20;100820.44;;;16.75;86.55
73624;BME280;61921;53.226;-1.296;2022-08-25T09:55:50;100820.49;;;16.90;86.37
73624;BME280;61921;53.226;-1.296;2022-08-25T09:58:17;100822.75;;;16.99;85.04
73624;BME280;61921;53.226;-1.296;2022-08-25T10:00:36;100824.96;;;16.87;85.33
73624;BME280;61921;53.226;-1.296;2022-08-25T10:03:06;100821.88;;;16.74;86.04
73624;BME280;61921;53.226;-1.296;2022-08-25T10:05:27;100818.47;;;16.65;85.96
73624;BME280;61921;53.226;-1.296;2022-08-25T10:07:55;100816.68;;;16.62;86.39
73624;BME280;61921;53.226;-1.296;2022-08-25T10:10:22;100811.33;;;16.56;86.30
73624;BME280;61921;53.226;-1.296;2022-08-25T10:12:44;100812.01;;;16.54;86.88
73624;BME280;61921;53.226;-1.296;2022-08-25T10:15:15;100812.78;;;16.68;87.12
73624;BME280;61921;53.226;-1.296;2022-08-25T10:17:33;100812.38;;;16.63;86.70
73624;BME280;61921;53.226;-1.296;2022-08-25T10:22:25;100813.61;;;16.46;86.21
73624;BME280;61921;53.226;-1.296;2022-08-25T10:24:50;100811.39;;;16.28;86.39
73624;BME280;61921;53.226;-1.296;2022-08-25T10:27:22;100801.89;;;16.30;86.62
73624;BME280;61921;53.226;-1.296;2022-08-25T10:29:54;100793.15;;;16.21;86.07
73624;BME280;61921;53.226;-1.296;2022-08-25T10:32:11;100791.68;;;16.19;86.57
73624;BME280;61921;53.226;-1.296;2022-08-25T10:34:41;100792.40;;;16.21;86.81
73624;BME280;61921;53.226;-1.296;2022-08-25T10:37:04;100796.38;;;16.22;87.11
73624;BME280;61921;53.226;-1.296;2022-08-25T10:39:34;100790.80;;;16.26;86.58
73624;BME280;61921;53.226;-1.296;2022-08-25T10:41:54;100789.43;;;16.29;86.41
73624;BME280;61921;53.226;-1.296;2022-08-25T10:44:20;100786.93;;;16.22;84.95
73624;BME280;61921;53.226;-1.296;2022-08-25T10:46:44;100786.73;;;16.30;85.06
73624;BME280;61921;53.226;-1.296;2022-08-25T10:49:07;100787.83;;;16.38;85.30
73624;BME280;61921;53.226;-1.296;2022-08-25T10:51:37;100785.03;;;16.39;84.34
73624;BME280;61921;53.226;-1.296;2022-08-25T10:53:57;100786.92;;;16.42;83.84
73624;BME280;61921;53.226;-1.296;2022-08-25T10:56:23;100789.55;;;16.46;84.27
73624;BME280;61921;53.226;-1.296;2022-08-25T10:58:59;100792.36;;;16.41;83.66
73624;BME280;61921;53.226;-1.296;2022-08-25T11:01:14;100791.50;;;16.46;83.79
73624;BME280;61921;53.226;-1.296;2022-08-25T11:03:44;100791.00;;;16.40;83.06
73624;BME280;61921;53.226;-1.296;2022-08-25T11:06:05;100785.16;;;16.25;83.05
73624;BME280;61921;53.226;-1.296;2022-08-25T11:08:33;100788.41;;;16.26;83.20
73624;BME280;61921;53.226;-1.296;2022-08-25T11:10:53;100790.66;;;16.29;82.14
73624;BME280;61921;53.226;-1.296;2022-08-25T11:13:22;100789.56;;;16.22;82.94
73624;BME280;61921;53.226;-1.296;2022-08-25T11:15:48;100788.90;;;16.19;81.18
73624;BME280;61921;53.226;-1.296;2022-08-25T11:18:10;100788.66;;;16.15;82.44
73624;BME280;61921;53.226;-1.296;2022-08-25T11:20:37;100793.69;;;16.02;82.25
73624;BME280;61921;53.226;-1.296;2022-08-25T11:23:07;100792.86;;;16.01;82.93
73624;BME280;61921;53.226;-1.296;2022-08-25T11:25:27;100792.97;;;15.96;82.41
73624;BME280;61921;53.226;-1.296;2022-08-25T11:27:52;100796.44;;;15.93;83.55
73624;BME280;61921;53.226;-1.296;2022-08-25T11:30:15;100797.42;;;15.97;83.51
73624;BME280;61921;53.226;-1.296;2022-08-25T11:32:39;100797.25;;;15.85;82.82
73624;BME280;61921;53.226;-1.296;2022-08-25T11:35:06;100797.72;;;15.67;84.32
73624;BME280;61921;53.226;-1.296;2022-08-25T11:37:29;100800.05;;;15.54;86.16
73624;BME280;61921;53.226;-1.296;2022-08-25T11:40:07;100795.74;;;15.52;86.40
73624;BME280;61921;53.226;-1.296;2022-08-25T11:42:27;100797.53;;;15.50;87.16
73624;BME280;61921;53.226;-1.296;2022-08-25T11:44:51;100797.11;;;15.65;87.94
73624;BME280;61921;53.226;-1.296;2022-08-25T11:47:24;100800.00;;;15.56;87.61
73624;BME280;61921;53.226;-1.296;2022-08-25T11:49:49;100798.76;;;15.45;88.76
73624;BME280;61921;53.226;-1.296;2022-08-25T11:52:00;100798.85;;;15.48;88.72
73624;BME280;61921;53.226;-1.296;2022-08-25T11:54:28;100799.32;;;15.55;89.39
73624;BME280;61921;53.226;-1.296;2022-08-25T11:56:54;100798.87;;;15.69;89.05
73624;BME280;61921;53.226;-1.296;2022-08-25T12:01:58;100800.04;;;15.67;89.42
73624;BME280;61921;53.226;-1.296;2022-08-25T12:04:13;100797.01;;;15.59;89.48
73624;BME280;61921;53.226;-1.296;2022-08-25T12:06:32;100789.99;;;15.71;89.55
73624;BME280;61921;53.226;-1.296;2022-08-25T12:13:49;100790.36;;;16.07;88.42
73624;BME280;61921;53.226;-1.296;2022-08-25T12:18:42;100801.10;;;15.81;88.96
73624;BME280;61921;53.226;-1.296;2022-08-25T12:21:12;100797.89;;;15.89;90.07
73624;BME280;61921;53.226;-1.296;2022-08-25T12:23:32;100797.17;;;16.07;90.17
73624;BME280;61921;53.226;-1.296;2022-08-25T12:25:59;100793.67;;;16.31;89.09
73624;BME280;61921;53.226;-1.296;2022-08-25T12:28:36;100798.22;;;16.45;88.68
73624;BME280;61921;53.226;-1.296;2022-08-25T12:30:51;100798.01;;;16.30;88.53
73624;BME280;61921;53.226;-1.296;2022-08-25T12:33:17;100799.60;;;16.30;87.84
73624;BME280;61921;53.226;-1.296;2022-08-25T12:35:50;100804.68;;;16.12;87.21
73624;BME280;61921;53.226;-1.296;2022-08-25T12:38:06;100808.69;;;16.05;85.95
73624;BME280;61921;53.226;-1.296;2022-08-25T12:40:33;100810.72;;;15.84;86.19
73624;BME280;61921;53.226;-1.296;2022-08-25T12:43:03;100809.66;;;15.93;86.02